Time;durP1;ratioP1;P1;durP2;ratioP2;P2;SDS_P1;SDS_P2;PMS_P1;PMS_P2;Temp;Humidity;BMP_temperature;BMP_pressure;BME280_temperature;BME280_humidity;BME280_pressure;Samples;Min_cycle;Max_cycle;Signal;HPM_P1;HPM_P2
2022/04/06 00:00:21;;;;;;;3.83;1.23;;;;;;;-1.38;100.00;97596.19;5153098;27;20139;-62
2022/04/06 00:02:47;;;;;;;6.97;1.70;;;;;;;-1.45;100.00;97590.56;5153021;27;20053;-62
2022/04/06 00:05:14;;;;;;;2.33;0.90;;;;;;;-1.41;100.00;97599.53;5151708;27;20421;-62
2022/04/06 00:07:41;;;;;;;3.38;1.45;;;;;;;-1.44;100.00;97600.97;5152887;27;20425;-62
2022/04/06 00:10:10;;;;;;;4.38;1.45;;;;;;;-1.38;100.00;97617.69;5153217;27;20049;-62
2022/04/06 00:12:37;;;;;;;1.75;1.13;;;;;;;-1.31;100.00;97627.94;5153177;27;20050;-62
2022/04/06 00:15:04;;;;;;;5.25;1.35;;;;;;;-1.36;100.00;97636.22;5153077;27;20174;-62
2022/04/06 00:17:31;;;;;;;2.45;1.00;;;;;;;-1.31;100.00;97641.41;5152488;27;20047;-62
2022/04/06 00:19:57;;;;;;;2.08;1.15;;;;;;;-1.32;100.00;97629.06;5152977;27;20465;-62
2022/04/06 00:22:24;;;;;;;3.33;1.25;;;;;;;-1.39;100.00;97618.03;5152768;27;20050;-62
2022/04/06 00:24:51;;;;;;;1.60;0.85;;;;;;;-1.34;100.00;97637.44;5152689;27;20046;-62
2022/04/06 00:27:18;;;;;;;2.63;1.17;;;;;;;-1.39;100.00;97643.03;5152637;27;20043;-62
2022/04/06 00:29:44;;;;;;;2.38;1.40;;;;;;;-1.38;100.00;97646.50;5152548;27;20050;-62
2022/04/06 00:32:11;;;;;;;4.20;1.33;;;;;;;-1.34;100.00;97661.63;5152347;27;20057;-62
2022/04/06 00:37:22;;;;;;;2.35;1.35;;;;;;;-1.25;100.00;97642.78;5152340;27;20050;-62
2022/04/06 00:39:49;;;;;;;10.95;1.95;;;;;;;-1.22;100.00;97632.16;5152459;27;20058;-61
2022/04/06 00:42:15;;;;;;;2.03;1.48;;;;;;;-1.23;100.00;97627.91;5152202;27;20103;-62
2022/04/06 00:44:41;;;;;;;3.47;1.40;;;;;;;-1.17;100.00;97620.44;5152288;27;20054;-62
2022/04/06 00:47:08;;;;;;;3.22;1.30;;;;;;;-1.17;100.00;97625.81;5152446;27;20066;-62
2022/04/06 00:49:34;;;;;;;3.15;1.20;;;;;;;-1.12;100.00;97651.75;5152268;27;20501;-62
2022/04/06 00:52:03;;;;;;;1.10;1.00;;;;;;;-1.12;100.00;97689.41;5152317;27;20051;-62
2022/04/06 00:54:31;;;;;;;6.10;1.20;;;;;;;-1.12;100.00;97717.06;5152171;27;20558;-62
2022/04/06 00:56:59;;;;;;;4.70;1.15;;;;;;;-1.12;100.00;97752.03;5152069;27;20046;-62
2022/04/06 00:59:28;;;;;;;2.13;1.50;;;;;;;-1.13;100.00;97771.97;5151937;27;20267;-62
2022/04/06 01:01:55;;;;;;;1.20;1.15;;;;;;;-1.11;100.00;97809.31;5152014;27;20042;-62
2022/04/06 01:04:21;;;;;;;2.10;1.80;;;;;;;-1.16;100.00;97823.72;5152208;27;20115;-62
2022/04/06 01:06:49;;;;;;;2.63;1.90;;;;;;;-1.15;100.00;97838.75;5151954;27;20068;-62
2022/04/06 01:09:16;;;;;;;6.13;2.83;;;;;;;-1.14;100.00;97853.75;5152156;27;20058;-61
2022/04/06 01:11:45;;;;;;;5.47;2.40;;;;;;;-1.21;100.00;97865.00;5151745;27;20042;-62
2022/04/06 01:14:12;;;;;;;12.23;2.88;;;;;;;-1.21;100.00;97874.97;5152049;27;20061;-62
2022/04/06 01:16:38;;;;;;;6.95;2.25;;;;;;;-1.26;100.00;97884.00;5151529;27;20429;-62
2022/04/06 01:19:05;;;;;;;5.63;2.58;;;;;;;-1.25;100.00;97903.59;5151932;27;20050;-62
2022/04/06 01:21:31;;;;;;;8.30;2.90;;;;;;;-1.17;100.00;97902.00;5151865;27;20047;-62
2022/04/06 01:23:59;;;;;;;3.83;2.25;;;;;;;-1.24;100.00;97911.34;5151820;27;20050;-61
2022/04/06 01:26:25;;;;;;;4.40;2.53;;;;;;;-1.19;100.00;97907.72;5151390;27;20061;-62
2022/04/06 01:28:52;;;;;;;5.68;1.98;;;;;;;-1.22;100.00;97908.34;5151808;27;20050;-62
2022/04/06 01:31:18;;;;;;;3.35;1.65;;;;;;;-1.20;100.00;97916.88;5151961;27;20054;-62
2022/04/06 01:33:45;;;;;;;5.30;2.17;;;;;;;-1.15;100.00;97913.25;5151622;27;20046;-62
2022/04/06 01:36:11;;;;;;;4.85;2.25;;;;;;;-1.18;100.00;97901.22;5151675;27;20524;-62
2022/04/06 01:38:37;;;;;;;3.53;1.70;;;;;;;-1.14;100.00;97906.75;5151541;27;20050;-62
2022/04/06 01:41:04;;;;;;;6.28;2.03;;;;;;;-1.12;100.00;97899.97;5151971;27;20046;-62
2022/04/06 01:43:30;;;;;;;6.90;2.40;;;;;;;-1.09;100.00;97896.63;5151224;27;20425;-62
2022/04/06 01:45:56;;;;;;;7.30;2.40;;;;;;;-1.04;100.00;97896.44;5151630;27;20046;-62
2022/04/06 01:48:22;;;;;;;9.23;2.22;;;;;;;-1.02;100.00;97883.47;5151554;27;20505;-62
2022/04/06 01:53:33;;;;;;;3.63;2.35;;;;;;;-0.96;100.00;97866.06;5151519;27;20041;-62
2022/04/06 01:55:59;;;;;;;11.05;3.92;;;;;;;-0.93;100.00;97858.44;5151411;27;20076;-62
2022/04/06 01:58:26;;;;;;;12.77;3.65;;;;;;;-0.92;100.00;97854.66;5151488;27;20058;-62
2022/04/06 02:00:53;;;;;;;11.07;4.82;;;;;;;-0.95;100.00;97835.34;5151422;27;20046;-62
2022/04/06 02:03:19;;;;;;;19.10;5.70;;;;;;;-0.89;100.00;97829.81;5151471;27;20047;-61
2022/04/06 02:05:46;;;;;;;15.38;5.47;;;;;;;-0.83;100.00;97815.06;5151289;27;20058;-62
2022/04/06 02:08:12;;;;;;;21.60;7.38;;;;;;;-0.73;100.00;97803.94;5151546;27;20051;-62
2022/04/06 02:10:39;;;;;;;32.97;7.97;;;;;;;-0.74;100.00;97805.03;5151307;27;20099;-62
2022/04/06 02:13:05;;;;;;;19.92;7.00;;;;;;;-0.73;100.00;97803.94;5151289;27;20046;-62
2022/04/06 02:15:32;;;;;;;21.58;8.32;;;;;;;-0.72;100.00;97790.16;5151279;27;20051;-62
2022/04/06 02:18:01;;;;;;;20.90;6.72;;;;;;;-0.76;100.00;97780.38;5151225;27;20051;-62
2022/04/06 02:20:27;;;;;;;19.55;7.32;;;;;;;-0.78;100.00;97769.91;5150925;27;20050;-62
2022/04/06 02:22:53;;;;;;;13.15;6.22;;;;;;;-0.80;100.00;97755.22;5150978;27;20053;-62
2022/04/06 02:25:19;;;;;;;22.20;6.30;;;;;;;-0.85;100.00;97737.34;5151284;27;20360;-61
2022/04/06 02:27:48;;;;;;;22.50;7.05;;;;;;;-0.81;100.00;97729.41;5152759;27;20460;-62
2022/04/06 02:30:15;;;;;;;25.45;7.68;;;;;;;-0.80;100.00;97728.28;5155039;27;20054;-62
2022/04/06 02:32:42;;;;;;;23.80;6.30;;;;;;;-0.76;100.00;97711.19;5154477;27;20046;-61
2022/04/06 02:35:09;;;;;;;22.52;6.40;;;;;;;-0.78;100.00;97699.16;5154760;27;20509;-62
2022/04/06 02:37:35;;;;;;;12.07;5.65;;;;;;;-0.68;100.00;97690.72;5154402;27;20050;-62
2022/04/06 02:40:01;;;;;;;9.93;5.45;;;;;;;-0.64;100.00;97682.78;5154854;27;20939;-61
2022/04/06 02:42:28;;;;;;;9.15;4.63;;;;;;;-0.57;100.00;97673.06;5154181;27;20217;-62
2022/04/06 02:44:54;;;;;;;14.30;5.90;;;;;;;-0.57;100.00;97672.28;5154535;27;20058;-61
2022/04/06 02:47:20;;;;;;;14.00;5.30;;;;;;;-0.53;100.00;97667.84;5154126;27;20046;-61
2022/04/06 02:49:47;;;;;;;9.75;4.82;;;;;;;-0.55;100.00;97668.16;5154665;27;20047;-62
2022/04/06 02:52:13;;;;;;;6.93;4.57;;;;;;;-0.56;100.00;97663.88;5154379;27;20051;-61
2022/04/06 02:54:39;;;;;;;12.90;5.03;;;;;;;-0.51;100.00;97660.19;5154193;27;20095;-61
2022/04/06 02:57:06;;;;;;;10.32;4.82;;;;;;;-0.46;100.00;97653.84;5154336;27;20420;-62
2022/04/06 02:59:32;;;;;;;12.80;5.07;;;;;;;-0.48;100.00;97656.84;5153935;27;20046;-62
2022/04/06 03:01:58;;;;;;;9.45;4.68;;;;;;;-0.45;100.00;97655.41;5154340;27;20050;-62
2022/04/06 03:04:25;;;;;;;7.43;4.05;;;;;;;-0.50;100.00;97642.91;5153977;27;20053;-62
2022/04/06 03:06:52;;;;;;;7.70;3.55;;;;;;;-0.45;100.00;97645.44;5154228;27;20053;-61
2022/04/06 03:09:18;;;;;;;6.20;3.58;;;;;;;-0.41;100.00;97645.56;5145476;27;20502;-62
2022/04/06 03:11:44;;;;;;;6.65;4.05;;;;;;;-0.27;100.00;97641.47;5154152;27;20043;-62
2022/04/06 03:14:10;;;;;;;7.63;3.65;;;;;;;-0.21;100.00;97641.25;5153874;27;20058;-62
2022/04/06 03:16:36;;;;;;;10.48;4.63;;;;;;;-0.14;100.00;97638.81;5153920;27;20054;-62
2022/04/06 03:19:03;;;;;;;10.82;5.13;;;;;;;-0.09;100.00;97638.63;5153657;27;20443;-62
2022/04/06 03:21:29;;;;;;;8.98;4.60;;;;;;;0.01;100.00;97640.91;5154031;27;20417;-62
2022/04/06 03:23:56;;;;;;;7.60;4.68;;;;;;;0.08;100.00;97651.91;5153767;27;20059;-62
2022/04/06 03:26:22;;;;;;;8.65;4.85;;;;;;;0.11;100.00;97653.16;5153649;27;20051;-62
2022/04/06 03:28:48;;;;;;;8.10;4.57;;;;;;;0.20;100.00;97659.22;5153998;27;20046;-62
2022/04/06 03:31:14;;;;;;;13.20;5.28;;;;;;;0.18;100.00;97664.97;5153466;27;20058;-62
2022/04/06 03:33:41;;;;;;;10.15;5.10;;;;;;;0.23;100.00;97672.03;5153721;27;20046;-62
2022/04/06 03:36:08;;;;;;;7.20;5.10;;;;;;;0.28;100.00;97671.06;5153454;27;20046;-62
2022/04/06 03:38:34;;;;;;;8.02;5.60;;;;;;;0.34;100.00;97667.03;5153442;27;20049;-61
2022/04/06 03:41:01;;;;;;;7.47;5.65;;;;;;;0.36;100.00;97683.66;5153084;27;20051;-61
2022/04/06 03:43:28;;;;;;;7.63;4.93;;;;;;;0.35;100.00;97680.16;5152943;27;20055;-62
2022/04/06 03:45:54;;;;;;;9.63;4.97;;;;;;;0.46;100.00;97680.50;5153470;27;20051;-62
2022/04/06 03:48:22;;;;;;;6.95;4.80;;;;;;;0.53;100.00;97693.44;5153185;27;20050;-62
2022/04/06 03:50:49;;;;;;;8.15;5.10;;;;;;;0.62;100.00;97694.94;5153468;27;20096;-62
2022/04/06 03:53:15;;;;;;;7.60;5.50;;;;;;;0.67;100.00;97697.41;5153209;27;20129;-62
2022/04/06 03:55:42;;;;;;;7.97;4.90;;;;;;;0.66;100.00;97706.63;5153434;27;20065;-62
2022/04/06 03:58:08;;;;;;;8.68;5.32;;;;;;;0.70;100.00;97712.16;5152850;27;20054;-62
2022/04/06 04:00:35;;;;;;;9.02;5.03;;;;;;;0.72;100.00;97709.09;5153572;27;20050;-62
2022/04/06 04:03:01;;;;;;;7.10;4.55;;;;;;;0.75;100.00;97722.72;5152956;27;20095;-62
2022/04/06 04:05:27;;;;;;;6.57;4.40;;;;;;;0.75;100.00;97730.81;5153139;27;20053;-62
2022/04/06 04:07:53;;;;;;;6.72;4.05;;;;;;;0.78;100.00;97737.44;5153012;27;20099;-62
2022/04/06 04:10:20;;;;;;;5.82;3.75;;;;;;;0.84;100.00;97746.91;5153301;27;20456;-61
2022/04/06 04:12:46;;;;;;;5.45;4.63;;;;;;;0.87;100.00;97747.03;5153032;27;20053;-62
2022/04/06 04:15:13;;;;;;;5.22;4.10;;;;;;;0.92;100.00;97748.69;5153479;27;20470;-62
2022/04/06 04:17:39;;;;;;;7.65;4.13;;;;;;;0.98;100.00;97762.78;5153345;27;20402;-62
2022/04/06 04:20:06;;;;;;;5.00;3.60;;;;;;;1.07;100.00;97763.47;5152626;27;20062;-62
2022/04/06 04:22:33;;;;;;;4.10;3.65;;;;;;;1.05;100.00;97773.78;5152905;27;20054;-62
2022/04/06 04:24:59;;;;;;;5.35;3.33;;;;;;;1.05;100.00;97789.97;5152681;27;20046;-62
2022/04/06 04:27:25;;;;;;;5.95;3.38;;;;;;;1.11;100.00;97802.16;5152786;27;20490;-62
2022/04/06 04:29:51;;;;;;;3.95;3.53;;;;;;;1.13;100.00;97816.06;5152607;27;20099;-62
2022/04/06 04:32:19;;;;;;;7.63;3.90;;;;;;;1.16;100.00;97823.50;5152582;27;20455;-62
2022/04/06 04:34:45;;;;;;;5.45;3.55;;;;;;;1.20;100.00;97823.63;5152505;27;20137;-62
2022/04/06 04:37:12;;;;;;;5.38;3.58;;;;;;;1.24;100.00;97838.81;5152486;27;20057;-62
2022/04/06 04:39:38;;;;;;;6.20;4.22;;;;;;;1.35;100.00;97839.16;5152195;27;20095;-61
2022/04/06 04:42:04;;;;;;;5.13;3.53;;;;;;;1.23;100.00;97847.25;5152536;27;20055;-62
2022/04/06 04:44:31;;;;;;;8.23;3.70;;;;;;;1.32;100.00;97856.81;5152048;27;20051;-61
2022/04/06 04:46:57;;;;;;;4.78;3.85;;;;;;;1.31;100.00;97865.28;5152036;27;20046;-62
2022/04/06 04:49:24;;;;;;;5.90;3.85;;;;;;;1.38;100.00;97866.28;5152107;27;20086;-62
2022/04/06 04:51:50;;;;;;;9.88;4.55;;;;;;;1.49;100.00;97865.84;5151449;27;20053;-62
2022/04/06 04:54:17;;;;;;;7.38;3.45;;;;;;;1.54;100.00;97881.84;5152269;27;20053;-62
2022/04/06 04:56:44;;;;;;;8.82;4.15;;;;;;;1.58;100.00;97882.75;5152046;27;20051;-62
2022/04/06 04:59:10;;;;;;;8.60;3.72;;;;;;;1.59;100.00;97887.78;5152175;27;20050;-62
2022/04/06 05:01:36;;;;;;;5.80;3.65;;;;;;;1.57;100.00;97895.47;5151953;27;20051;-61
2022/04/06 05:04:02;;;;;;;6.88;3.78;;;;;;;1.59;100.00;97895.91;5151985;27;20046;-61
2022/04/06 05:06:30;;;;;;;9.93;3.30;;;;;;;1.64;100.00;97892.22;5151907;27;20047;-62
2022/04/06 05:08:56;;;;;;;5.40;3.88;;;;;;;1.68;100.00;97898.50;5151705;27;20054;-61
2022/04/06 05:11:22;;;;;;;4.90;3.42;;;;;;;1.67;100.00;97894.25;5151956;27;20436;-61
2022/04/06 05:13:48;;;;;;;3.88;3.47;;;;;;;1.71;100.00;97895.13;5151918;27;20061;-61
2022/04/06 05:16:14;;;;;;;4.50;3.38;;;;;;;1.73;100.00;97890.16;5151868;27;20051;-61
2022/04/06 05:18:40;;;;;;;4.63;3.45;;;;;;;1.76;100.00;97897.59;5141574;27;20051;-62
2022/04/06 05:21:07;;;;;;;6.72;3.13;;;;;;;1.76;100.00;97899.50;5111316;28;20429;-61
2022/04/06 05:23:35;;;;;;;3.75;3.13;;;;;;;1.80;100.00;97900.41;5117286;27;20571;-61
2022/04/06 05:26:01;;;;;;;9.35;3.38;;;;;;;1.88;100.00;97896.81;5116022;27;20495;-62
2022/04/06 05:28:27;;;;;;;5.03;3.47;;;;;;;1.87;100.00;97898.75;5119180;28;20048;-62
2022/04/06 05:30:53;;;;;;;5.35;3.65;;;;;;;1.80;100.00;97889.59;5121744;28;20051;-62
2022/04/06 05:33:19;;;;;;;6.70;3.35;;;;;;;2.16;100.00;97907.72;5129664;28;20081;-55
2022/04/06 05:35:46;;;;;;;4.55;3.53;;;;;;;2.68;100.00;97904.22;5123905;27;20108;-55
2022/04/06 05:38:12;;;;;;;7.03;3.35;;;;;;;2.88;100.00;97885.44;5113874;28;20112;-53
2022/04/06 05:40:39;;;;;;;9.70;3.33;;;;;;;2.90;100.00;97856.09;5118030;27;20502;-55
2022/04/06 05:43:05;;;;;;;6.15;3.60;;;;;;;2.92;100.00;97829.47;5115444;27;20474;-55
2022/04/06 05:45:31;;;;;;;6.10;3.33;;;;;;;3.14;100.00;97818.06;5119869;27;20051;-55
2022/04/06 05:47:58;;;;;;;8.80;3.50;;;;;;;3.24;100.00;97768.81;5115394;28;20388;-54
2022/04/06 05:50:24;;;;;;;7.43;3.22;;;;;;;3.29;100.00;97738.72;5121667;28;20047;-55
2022/04/06 05:52:50;;;;;;;7.47;3.40;;;;;;;3.49;100.00;97704.34;5123923;27;20108;-58
2022/04/06 05:55:16;;;;;;;4.75;2.58;;;;;;;3.94;100.00;97681.31;5111769;28;20058;-59
2022/04/06 05:57:43;;;;;;;3.40;3.00;;;;;;;3.73;100.00;97559.69;5109794;28;20051;-59
2022/04/06 06:00:10;;;;;;;5.35;2.90;;;;;;;3.39;100.00;97514.50;5110815;28;20451;-59
2022/04/06 06:02:37;;;;;;;4.95;2.55;;;;;;;3.36;100.00;97563.97;5110810;28;20474;-59
2022/04/06 06:05:04;;;;;;;8.07;3.28;;;;;;;3.56;100.00;97599.97;5113269;28;20047;-59
2022/04/06 06:07:30;;;;;;;7.25;3.08;;;;;;;3.68;100.00;97599.84;5120079;27;20130;-59
2022/04/06 06:09:57;;;;;;;4.28;2.95;;;;;;;3.64;100.00;97542.84;5130271;28;20047;-58
2022/04/06 06:12:23;;;;;;;4.55;2.60;;;;;;;3.68;100.00;97530.16;5133810;27;20047;-58
2022/04/06 06:14:50;;;;;;;4.18;2.53;;;;;;;3.68;100.00;97537.50;5132199;28;20055;-58
2022/04/06 06:17:16;;;;;;;5.10;3.05;;;;;;;3.76;100.00;97567.06;5119924;28;20095;-60
2022/04/06 06:19:43;;;;;;;5.00;2.75;;;;;;;3.97;100.00;97580.25;5120554;27;20051;-65
2022/04/06 06:22:09;;;;;;;6.63;3.08;;;;;;;4.27;100.00;97571.47;5119967;28;20051;-64
2022/04/06 06:24:35;;;;;;;5.00;2.75;;;;;;;4.48;100.00;97522.97;5124999;27;20056;-64
2022/04/06 06:27:01;;;;;;;4.25;2.92;;;;;;;4.59;100.00;97455.28;5118931;27;20098;-63
2022/04/06 06:29:27;;;;;;;8.35;2.92;;;;;;;4.53;100.00;97393.56;5128468;27;20046;-63
2022/04/06 06:31:54;;;;;;;6.10;3.05;;;;;;;4.70;100.00;97382.94;5122032;28;20109;-63
2022/04/06 06:34:21;;;;;;;2.50;2.30;;;;;;;4.59;100.00;97313.38;5116868;28;20054;-62
2022/04/06 06:36:48;;;;;;;6.07;2.80;;;;;;;4.44;100.00;97280.66;5142599;27;20386;-64
2022/04/06 06:39:14;;;;;;;5.35;2.63;;;;;;;4.23;100.00;97289.34;5151686;27;20051;-58
2022/04/06 06:41:42;;;;;;;8.07;3.00;;;;;;;4.24;100.00;97349.78;5136096;27;20050;-57
2022/04/06 06:44:08;;;;;;;3.05;2.40;;;;;;;4.15;100.00;97365.53;5152211;27;20046;-56
2022/04/06 06:46:35;;;;;;;4.75;2.55;;;;;;;3.86;100.00;97388.72;5136047;27;20051;-58
2022/04/06 06:49:03;;;;;;;5.13;2.88;;;;;;;3.74;100.00;97473.72;5133272;27;20055;-62
2022/04/06 06:51:30;;;;;;;5.10;3.13;;;;;;;3.67;100.00;97516.97;5151490;27;20046;-63
2022/04/06 06:53:56;;;;;;;7.88;3.28;;;;;;;3.67;100.00;97563.81;5154081;27;20474;-63
2022/04/06 06:56:23;;;;;;;5.68;3.35;;;;;;;3.68;100.00;97602.53;5154496;27;20049;-63
2022/04/06 06:58:49;;;;;;;6.85;3.28;;;;;;;3.83;100.00;97631.47;5154029;27;20429;-63
2022/04/06 07:01:15;;;;;;;6.93;2.85;;;;;;;3.97;100.00;97641.84;5137327;27;20043;-63
2022/04/06 07:03:41;;;;;;;4.85;2.80;;;;;;;3.92;100.00;97628.56;5139346;27;20050;-63
2022/04/06 07:06:08;;;;;;;4.13;2.33;;;;;;;3.93;100.00;97636.34;5153817;27;20494;-64
2022/04/06 07:08:34;;;;;;;4.10;3.05;;;;;;;3.88;100.00;97642.06;5147353;27;20076;-63
2022/04/06 07:11:00;;;;;;;4.78;2.88;;;;;;;3.83;100.00;97636.91;5136057;27;20051;-65
2022/04/06 07:13:27;;;;;;;3.95;2.60;;;;;;;3.62;100.00;97631.84;5135968;27;20055;-64
2022/04/06 07:15:54;;;;;;;5.75;3.17;;;;;;;3.59;100.00;97686.75;5153423;27;20081;-63
2022/04/06 07:18:38;;;;;;;5.75;2.75;;;;;;;3.61;100.00;97700.75;5154001;27;20069;-63
2022/04/06 07:21:04;;;;;;;;;;;;;;;3.66;100.00;97713.22;5154860;27;20042;-64
2022/04/06 07:23:32;;;;;;;4.78;2.60;;;;;;;3.54;100.00;97727.69;5150459;27;19924;-64
2022/04/06 07:25:58;;;;;;;3.22;2.75;;;;;;;3.41;100.00;97728.94;5133338;27;20051;-63
2022/04/06 07:28:24;;;;;;;6.22;2.90;;;;;;;3.36;100.00;97759.00;5149156;27;20497;-65
2022/04/06 07:30:51;;;;;;;5.57;3.17;;;;;;;3.32;100.00;97780.59;5153791;27;20055;-64
2022/04/06 07:33:17;;;;;;;5.15;3.38;;;;;;;3.26;100.00;97809.84;5136194;27;20051;-64
2022/04/06 07:35:43;;;;;;;4.60;3.08;;;;;;;3.24;100.00;97824.91;5132952;27;20058;-64
2022/04/06 07:38:12;;;;;;;4.13;2.95;;;;;;;3.35;100.00;97868.50;5132646;28;20050;-61
2022/04/06 07:40:40;;;;;;;4.35;2.50;;;;;;;3.40;100.00;97889.91;5133095;27;20049;-60
2022/04/06 07:43:07;;;;;;;5.88;2.75;;;;;;;3.36;100.00;97897.94;5147182;27;20887;-56
2022/04/06 07:45:34;;;;;;;5.82;2.60;;;;;;;3.43;100.00;97905.47;5153830;27;20075;-60
2022/04/06 07:48:00;;;;;;;2.88;2.15;;;;;;;3.59;100.00;97897.34;5153424;27;20418;-60
2022/04/06 07:50:27;;;;;;;6.85;3.10;;;;;;;3.83;100.00;97902.56;5151359;27;20051;-60
2022/04/06 07:52:53;;;;;;;3.88;2.45;;;;;;;4.14;100.00;97869.22;5135563;27;20058;-58
2022/04/06 07:55:20;;;;;;;3.50;2.33;;;;;;;4.38;100.00;97775.16;5137006;27;20077;-60
2022/04/06 07:57:47;;;;;;;6.10;2.03;;;;;;;4.97;100.00;97722.31;5141049;27;20074;-59
2022/04/06 08:00:15;;;;;;;6.57;2.30;;;;;;;6.14;100.00;97567.38;5141160;27;20502;-60
2022/04/06 08:02:43;;;;;;;3.13;2.08;;;;;;;7.72;100.00;97195.50;5136661;27;20054;-61
2022/04/06 08:05:10;;;;;;;3.63;2.10;;;;;;;8.73;100.00;96855.19;5136088;27;20054;-60
2022/04/06 08:07:39;;;;;;;4.13;2.10;;;;;;;10.11;100.00;96716.66;5143649;27;20047;-60
2022/04/06 08:10:07;;;;;;;3.15;2.00;;;;;;;10.95;100.00;96685.13;5131869;28;20513;-60
2022/04/06 08:12:33;;;;;;;4.03;2.20;;;;;;;11.35;100.00;96720.59;5132164;27;20043;-61
2022/04/06 08:15:00;;;;;;;4.45;2.35;;;;;;;11.15;100.00;96796.72;5131952;28;20062;-60
2022/04/06 08:17:30;;;;;;;6.15;2.42;;;;;;;11.47;100.00;96810.47;5139782;27;20054;-61
2022/04/06 08:19:56;;;;;;;4.13;2.53;;;;;;;12.02;100.00;96827.19;5152235;27;20501;-60
2022/04/06 08:22:22;;;;;;;6.60;2.22;;;;;;;11.92;100.00;96844.72;5152498;27;20058;-60
2022/04/06 08:24:48;;;;;;;6.90;2.50;;;;;;;11.06;100.00;96846.63;5151639;27;20046;-60
2022/04/06 08:27:14;;;;;;;7.95;3.10;;;;;;;9.98;100.00;96822.47;5146133;27;20505;-60
2022/04/06 08:29:41;;;;;;;6.05;2.85;;;;;;;9.22;100.00;96801.03;5131946;28;20065;-61
2022/04/06 08:32:08;;;;;;;9.25;3.28;;;;;;;8.51;100.00;96766.50;5132091;28;20047;-60
2022/04/06 08:34:34;;;;;;;8.27;2.60;;;;;;;7.99;100.00;96734.69;5132511;27;20047;-60
2022/04/06 08:37:02;;;;;;;8.00;2.15;;;;;;;7.43;100.00;96731.34;5130199;27;20562;-60
2022/04/06 08:39:28;;;;;;;2.60;2.40;;;;;;;7.02;100.00;96719.22;5131893;28;20082;-59
2022/04/06 08:41:55;;;;;;;5.25;2.35;;;;;;;6.63;100.00;96737.75;5132294;27;20051;-60
2022/04/06 08:44:21;;;;;;;4.78;2.35;;;;;;;6.40;100.00;96740.97;5131394;28;20043;-61
2022/04/06 08:46:50;;;;;;;2.88;2.13;;;;;;;6.28;100.00;96750.38;5131966;27;20059;-59
2022/04/06 08:49:18;;;;;;;3.72;2.42;;;;;;;6.21;100.00;96767.50;5149987;27;20384;-59
2022/04/06 08:51:45;;;;;;;3.25;2.42;;;;;;;6.01;100.00;96780.78;5133364;27;20571;-61
2022/04/06 08:54:12;;;;;;;6.78;2.28;;;;;;;5.82;100.00;96787.38;5151953;27;20098;-60
2022/04/06 08:56:38;;;;;;;3.72;2.10;;;;;;;5.61;100.00;96804.50;5149376;27;20057;-59
2022/04/06 08:59:04;;;;;;;3.08;2.20;;;;;;;5.58;100.00;96856.91;5131085;27;20059;-60
2022/04/06 09:01:33;;;;;;;6.60;2.88;;;;;;;5.84;100.00;96893.06;5131275;27;20047;-58
2022/04/06 09:04:00;;;;;;;3.15;2.20;;;;;;;6.29;100.00;96877.84;5132334;27;20441;-59
2022/04/06 09:06:32;;;;;;;5.45;2.33;;;;;;;7.16;100.00;96829.28;5140292;27;20051;-60
2022/04/06 09:08:58;;;;;;;7.70;2.45;;;;;;;7.09;100.00;96767.41;5131115;27;20047;-60
2022/04/06 09:11:26;;;;;;;6.20;2.38;;;;;;;6.81;100.00;96757.50;5135697;27;20566;-59
2022/04/06 09:13:58;;;;;;;4.35;2.60;;;;;;;6.60;100.00;96753.72;5131089;27;20047;-61
2022/04/06 09:16:28;;;;;;;9.15;2.30;;;;;;;6.39;100.00;96780.25;5151780;27;20104;-61
2022/04/06 09:18:54;;;;;;;4.10;2.13;;;;;;;6.28;100.00;96791.97;5136515;27;20051;-60
2022/04/06 09:21:20;;;;;;;10.57;3.17;;;;;;;6.21;100.00;96797.44;5131039;27;20137;-61
2022/04/06 09:23:48;;;;;;;8.30;2.60;;;;;;;6.45;100.00;96809.38;5134275;27;20047;-62
2022/04/06 09:26:17;;;;;;;5.30;2.95;;;;;;;7.03;100.00;96788.09;5149350;27;20458;-64
2022/04/06 09:28:46;;;;;;;12.15;4.47;;;;;;;7.53;100.00;96755.81;5151186;27;20046;-60
2022/04/06 09:31:15;;;;;;;5.07;2.40;;;;;;;7.87;100.00;96763.28;5151493;27;20057;-62
2022/04/06 09:33:43;;;;;;;2.97;2.17;;;;;;;8.57;100.00;96770.31;5151675;27;20043;-59
2022/04/06 09:36:19;;;;;;;2.05;1.75;;;;;;;9.08;100.00;96812.16;5133262;27;20753;-67
2022/04/06 09:38:48;;;;;;;3.28;1.90;;;;;;;9.38;100.00;96885.94;5130974;27;20050;-65
2022/04/06 09:41:15;;;;;;;4.28;2.13;;;;;;;9.32;100.00;96898.50;5147467;27;20051;-62
2022/04/06 09:43:44;;;;;;;3.85;2.10;;;;;;;8.94;100.00;96912.28;5150929;27;20043;-67
2022/04/06 09:49:05;;;;;;;7.05;2.50;;;;;;;8.78;100.00;96865.63;5151433;27;20421;-66
2022/04/06 09:51:32;;;;;;;5.28;2.75;;;;;;;9.31;100.00;96861.44;5146497;27;20101;-66
2022/04/06 09:54:03;;;;;;;4.82;2.10;;;;;;;9.50;100.00;96890.09;5142055;27;20047;-66
2022/04/06 09:56:30;;;;;;;5.35;2.72;;;;;;;9.14;100.00;96936.25;5151712;27;20104;-64
2022/04/06 09:58:58;;;;;;;4.68;2.60;;;;;;;8.62;100.00;96920.81;5151139;27;20058;-62
2022/04/06 10:01:26;;;;;;;3.22;2.50;;;;;;;8.24;100.00;96911.81;5151011;27;20050;-63
2022/04/06 10:03:55;;;;;;;3.25;2.22;;;;;;;7.90;100.00;96868.09;5150928;27;20047;-65
2022/04/06 10:06:22;;;;;;;4.53;2.65;;;;;;;7.37;100.00;96874.72;5150417;27;20046;-68
2022/04/06 10:08:49;;;;;;;7.45;3.17;;;;;;;7.23;100.00;96842.84;5151325;27;20050;-60
2022/04/06 10:11:17;;;;;;;7.30;3.42;;;;;;;7.17;100.00;96825.38;5144463;27;20099;-60
2022/04/06 10:13:44;;;;;;;6.03;2.72;;;;;;;7.05;100.00;96818.44;5151274;27;20498;-56
2022/04/06 10:16:12;;;;;;;3.95;3.17;;;;;;;6.89;100.00;96816.19;5148546;27;20085;-53
2022/04/06 10:18:41;;;;;;;4.05;2.70;;;;;;;6.69;100.00;96813.19;5150684;27;20497;-56
2022/04/06 10:21:13;;;;;;;3.92;2.97;;;;;;;6.69;100.00;96805.00;5150871;27;20047;-55
2022/04/06 10:23:48;;;;;;;7.43;2.78;;;;;;;7.13;100.00;96816.44;5136644;27;20413;-57
2022/04/06 10:26:30;;;;;;;4.78;2.72;;;;;;;7.24;100.00;96804.31;5150496;27;20107;-62
2022/04/06 10:28:56;;;;;;;9.07;2.70;;;;;;;7.61;100.00;96815.72;5147503;27;20058;-57
2022/04/06 10:31:23;;;;;;;5.25;2.80;;;;;;;7.91;100.00;96804.91;5132279;27;20047;-62
2022/04/06 10:33:49;;;;;;;4.60;2.40;;;;;;;8.29;100.00;96818.56;5129584;27;20047;-65
2022/04/06 10:36:21;;;;;;;5.55;2.20;;;;;;;8.48;100.00;96861.69;5134409;27;20536;-61
2022/04/06 10:39:13;;;;;;;8.00;2.33;;;;;;;8.61;100.00;96872.84;5133097;27;20047;-62
2022/04/06 10:42:00;;;;;;;5.85;2.60;;;;;;;8.53;100.00;96889.72;5130060;27;20055;-60
2022/04/06 10:44:39;;;;;;;12.05;2.30;;;;;;;8.50;100.00;96913.16;5140223;27;20053;-60
2022/04/06 10:47:07;;;;;;;10.77;2.90;;;;;;;8.34;100.00;96923.84;5150055;27;20057;-61
2022/04/06 10:49:33;;;;;;;3.78;2.92;;;;;;;7.98;100.00;96938.53;5153276;27;20081;-61
2022/04/06 10:52:18;;;;;;;5.05;2.78;;;;;;;7.65;100.00;96914.63;5142140;27;20054;-61
2022/04/06 10:54:44;;;;;;;5.45;2.92;;;;;;;7.51;100.00;96899.91;5145079;27;20050;-61
2022/04/06 10:57:11;;;;;;;6.25;2.75;;;;;;;7.37;100.00;96921.03;5153315;27;20098;-61
2022/04/06 10:59:38;;;;;;;3.75;2.42;;;;;;;7.43;100.00;96920.22;5153247;27;20128;-61
2022/04/06 11:02:29;;;;;;;5.57;2.40;;;;;;;8.75;100.00;96885.56;5152852;27;20058;-61
2022/04/06 11:04:56;;;;;;;4.93;2.50;;;;;;;9.36;100.00;96958.63;5133476;27;20074;-61
2022/04/06 11:10:29;;;;;;;5.07;2.20;;;;;;;9.58;100.00;97072.06;5143077;27;20054;-61
2022/04/06 11:13:00;;;;;;;9.52;2.47;;;;;;;9.50;100.00;97087.00;5143855;27;20561;-61
2022/04/06 11:15:37;;;;;;;2.58;2.38;;;;;;;9.08;100.00;97071.81;5137797;27;20047;-66
2022/04/06 11:18:04;;;;;;;3.60;2.40;;;;;;;8.76;100.00;97026.44;5142713;27;20090;-69
2022/04/06 11:20:32;;;;;;;5.03;2.67;;;;;;;8.47;100.00;97013.06;5152470;27;20050;-68
2022/04/06 11:23:00;;;;;;;5.55;2.45;;;;;;;8.47;100.00;96995.91;5140340;27;20099;-66
2022/04/06 11:25:29;;;;;;;2.50;2.15;;;;;;;8.44;100.00;97057.53;5133417;27;20528;-75
2022/04/06 11:28:05;;;;;;;6.80;3.13;;;;;;;8.30;100.00;97063.09;5132365;28;20066;-64
2022/04/06 11:30:34;;;;;;;5.65;3.00;;;;;;;8.75;100.00;96983.91;5135430;27;20088;-64
2022/04/06 11:33:01;;;;;;;3.50;2.25;;;;;;;9.52;100.00;97065.47;5153268;27;20046;-64
2022/04/06 11:35:29;;;;;;;5.93;2.30;;;;;;;9.38;100.00;97172.31;5153301;27;20043;-65
2022/04/06 11:37:55;;;;;;;5.10;2.72;;;;;;;9.40;100.00;97128.94;5153208;27;20051;-64
2022/04/06 11:40:24;;;;;;;2.60;1.95;;;;;;;9.36;100.00;97098.88;5151520;27;20107;-64